Time;durP1;ratioP1;P1;durP2;ratioP2;P2;SDS_P1;SDS_P2;PMS_P1;PMS_P2;Temp;Humidity;BMP_temperature;BMP_pressure;BME280_temperature;BME280_humidity;BME280_pressure;Samples;Min_cycle;Max_cycle;Signal;HPM_P1;HPM_P2
2023/04/14 00:02:14;;;;;;;11.90;4.43;;;;;;;3.98;100.00;100704.72;5225238;28;20059;-67
2023/04/14 00:04:51;;;;;;;15.10;4.38;;;;;;;3.92;100.00;100700.59;5225263;28;21579;-67
2023/04/14 00:07:22;;;;;;;11.77;4.60;;;;;;;3.91;100.00;100694.47;5220469;28;20041;-67
2023/04/14 00:09:53;;;;;;;11.80;5.35;;;;;;;3.90;100.00;100695.38;5226535;28;20032;-67
2023/04/14 00:12:25;;;;;;;10.82;5.35;;;;;;;3.83;100.00;100698.41;5227172;28;20463;-67
2023/04/14 00:14:56;;;;;;;11.23;4.90;;;;;;;3.78;100.00;100689.88;5224898;28;20029;-67
2023/04/14 00:17:27;;;;;;;14.88;5.22;;;;;;;3.83;100.00;100691.34;5227263;28;20846;-67
2023/04/14 00:19:59;;;;;;;13.82;4.70;;;;;;;3.73;100.00;100696.25;5224175;28;20029;-67
2023/04/14 00:22:30;;;;;;;11.38;4.40;;;;;;;3.69;100.00;100689.41;5236297;28;20037;-67
2023/04/14 00:25:02;;;;;;;10.30;4.82;;;;;;;3.67;100.00;100695.72;5232954;28;20365;-67
2023/04/14 00:27:33;;;;;;;11.38;4.03;;;;;;;3.64;100.00;100694.06;5228157;28;20112;-67
2023/04/14 00:30:05;;;;;;;12.40;4.72;;;;;;;3.62;100.00;100703.84;5226548;28;20476;-67
2023/04/14 00:32:37;;;;;;;9.57;4.13;;;;;;;3.59;100.00;100697.88;5225284;28;20548;-67
2023/04/14 00:35:08;;;;;;;9.27;4.28;;;;;;;3.54;100.00;100698.09;5225843;28;20044;-67
2023/04/14 00:37:40;;;;;;;14.38;4.90;;;;;;;3.52;100.00;100710.50;5218034;28;20078;-67
2023/04/14 00:40:12;;;;;;;12.10;4.22;;;;;;;3.50;100.00;100707.94;5220288;28;20033;-67
2023/04/14 00:42:44;;;;;;;10.88;3.92;;;;;;;3.45;100.00;100702.06;5223278;28;20061;-67
2023/04/14 00:45:16;;;;;;;10.75;3.90;;;;;;;3.43;100.00;100706.56;5225346;28;20146;-67
2023/04/14 00:47:49;;;;;;;10.60;4.03;;;;;;;3.42;100.00;100704.00;5221617;28;20104;-67
2023/04/14 00:50:20;;;;;;;11.10;3.72;;;;;;;3.37;100.00;100708.63;5218982;28;20033;-67
2023/04/14 00:52:52;;;;;;;9.25;3.88;;;;;;;3.33;100.00;100714.03;5221802;28;20087;-67
2023/04/14 00:55:24;;;;;;;11.82;4.25;;;;;;;3.30;100.00;100711.56;5224441;28;20044;-67
2023/04/14 00:57:55;;;;;;;14.35;4.88;;;;;;;3.28;100.00;100708.16;5225001;28;20037;-67
2023/04/14 01:00:27;;;;;;;10.27;3.75;;;;;;;3.27;100.00;100716.97;5226047;28;20050;-67
2023/04/14 01:02:59;;;;;;;13.68;4.10;;;;;;;3.34;100.00;100707.84;5225825;28;20060;-67
2023/04/14 01:05:31;;;;;;;13.38;4.68;;;;;;;3.38;100.00;100720.91;5221071;28;20108;-67
2023/04/14 01:08:03;;;;;;;9.60;4.47;;;;;;;3.33;100.00;100724.59;5228635;28;20032;-67
2023/04/14 01:10:44;;;;;;;14.73;5.00;;;;;;;3.27;100.00;100719.63;5224834;28;20427;-67
2023/04/14 01:13:32;;;;;;;10.02;5.07;;;;;;;3.28;100.00;100726.63;5224106;28;20477;-67
2023/04/14 01:16:13;;;;;;;15.10;5.30;;;;;;;3.27;100.00;100732.78;5225786;28;20032;-68
2023/04/14 01:19:14;;;;;;;10.05;5.03;;;;;;;3.21;100.00;100732.25;5223820;28;20037;-67
2023/04/14 01:21:50;;;;;;;12.57;5.47;;;;;;;3.15;100.00;100736.03;5222635;28;20368;-67
2023/04/14 01:24:47;;;;;;;15.05;5.82;;;;;;;3.14;100.00;100732.56;5225507;28;20042;-67
2023/04/14 01:27:56;;;;;;;14.13;5.32;;;;;;;3.12;100.00;100728.25;5228971;28;20038;-67
2023/04/14 01:30:27;;;;;;;14.80;5.65;;;;;;;3.07;100.00;100722.38;5224024;28;20042;-66
2023/04/14 01:33:04;;;;;;;12.38;5.72;;;;;;;3.01;100.00;100727.91;5223675;28;20041;-67
2023/04/14 01:35:41;;;;;;;13.40;5.57;;;;;;;3.07;100.00;100732.91;5227450;28;20457;-67
2023/04/14 01:38:26;;;;;;;17.10;6.60;;;;;;;3.04;100.00;100730.41;5223580;28;20029;-67
2023/04/14 01:41:03;;;;;;;12.65;5.80;;;;;;;3.04;100.00;100736.53;5223309;28;20033;-67
2023/04/14 01:43:41;;;;;;;11.95;5.05;;;;;;;3.01;100.00;100734.06;5223107;28;20033;-66
2023/04/14 01:46:15;;;;;;;9.45;4.85;;;;;;;2.97;100.00;100739.53;5217991;28;20391;-67
2023/04/14 01:48:48;;;;;;;;;;;;;;;3.06;100.00;100741.72;5226189;28;20089;-67
2023/04/14 01:51:21;;;;;;;12.00;5.40;;;;;;;3.05;100.00;100740.88;5216911;28;19921;-67
2023/04/14 01:53:55;;;;;;;11.07;4.72;;;;;;;2.99;100.00;100740.31;5221571;28;20502;-68
2023/04/14 01:56:27;;;;;;;10.07;4.85;;;;;;;2.95;100.00;100744.84;5221553;28;20034;-67
2023/04/14 01:59:00;;;;;;;11.95;4.53;;;;;;;2.90;100.00;100747.72;5221787;28;20026;-67
2023/04/14 02:01:33;;;;;;;12.43;4.57;;;;;;;2.94;100.00;100745.78;5228519;28;20317;-67
2023/04/14 02:04:07;;;;;;;10.55;4.60;;;;;;;2.82;100.00;100744.59;5230835;28;20033;-67
2023/04/14 02:06:39;;;;;;;12.02;4.38;;;;;;;2.84;100.00;100740.09;5226962;28;20025;-67
2023/04/14 02:09:11;;;;;;;13.82;3.90;;;;;;;2.82;100.00;100746.34;5229589;28;20112;-66
2023/04/14 02:11:45;;;;;;;11.88;3.90;;;;;;;2.84;100.00;100745.38;5223606;28;20055;-67
2023/04/14 02:14:18;;;;;;;10.93;4.25;;;;;;;2.79;100.00;100747.34;5222623;28;20160;-67
2023/04/14 02:16:51;;;;;;;11.85;4.38;;;;;;;2.78;100.00;100748.28;5222490;28;20064;-69
2023/04/14 02:19:24;;;;;;;9.05;4.35;;;;;;;2.79;100.00;100749.13;5223033;28;20052;-67
2023/04/14 02:21:56;;;;;;;14.10;4.45;;;;;;;2.81;100.00;100748.13;5224376;28;20029;-66
2023/04/14 02:24:27;;;;;;;9.18;3.97;;;;;;;2.75;100.00;100754.53;5223755;28;20083;-68
2023/04/14 02:27:07;;;;;;;12.68;4.05;;;;;;;2.77;100.00;100753.63;5220154;28;20037;-67
2023/04/14 02:29:43;;;;;;;11.55;4.10;;;;;;;2.67;100.00;100750.56;5223580;28;20044;-66
2023/04/14 02:32:22;;;;;;;10.85;4.10;;;;;;;2.70;100.00;100758.31;5221859;28;20044;-67
2023/04/14 02:35:00;;;;;;;12.38;5.07;;;;;;;2.65;100.00;100748.00;5219144;28;20021;-67
2023/04/14 02:37:49;;;;;;;11.20;4.03;;;;;;;2.65;100.00;100757.69;5223574;28;20043;-66
2023/04/14 02:40:31;;;;;;;10.02;3.95;;;;;;;2.61;100.00;100759.59;5224253;28;20033;-67
2023/04/14 02:43:16;;;;;;;9.45;3.95;;;;;;;2.60;100.00;100752.59;5224764;28;20033;-67
2023/04/14 02:45:51;;;;;;;8.13;3.70;;;;;;;2.55;100.00;100760.72;5219449;28;21001;-67
2023/04/14 02:48:25;;;;;;;12.07;3.83;;;;;;;2.59;100.00;100774.59;5221927;28;20029;-67
2023/04/14 02:50:58;;;;;;;9.15;4.10;;;;;;;2.57;100.00;100771.19;5224604;28;20025;-67
2023/04/14 02:53:30;;;;;;;11.88;3.80;;;;;;;2.60;100.00;100770.19;5220610;28;20053;-67
2023/04/14 02:56:02;;;;;;;13.05;4.15;;;;;;;2.58;100.00;100761.50;5220295;28;20033;-66
2023/04/14 02:58:34;;;;;;;9.55;3.55;;;;;;;2.51;100.00;100767.03;5217547;28;20084;-66
2023/04/14 03:01:06;;;;;;;12.40;4.47;;;;;;;2.52;100.00;100760.00;5217789;28;20044;-66
2023/04/14 03:03:38;;;;;;;10.80;4.32;;;;;;;2.57;100.00;100765.91;5225507;28;20103;-67
2023/04/14 03:06:14;;;;;;;10.02;4.40;;;;;;;2.55;100.00;100768.63;5222290;28;20026;-67
2023/04/14 03:08:46;;;;;;;11.30;4.28;;;;;;;2.62;100.00;100774.44;5219149;28;20037;-67
2023/04/14 03:11:20;;;;;;;10.23;4.05;;;;;;;2.53;100.00;100778.38;5222949;28;20160;-66
2023/04/14 03:13:55;;;;;;;10.15;3.78;;;;;;;2.48;100.00;100782.13;5228002;28;20037;-66
2023/04/14 03:16:27;;;;;;;;;;;;;;;2.57;100.00;100775.56;5228106;28;20124;-67
2023/04/14 03:19:00;;;;;;;10.88;4.15;;;;;;;2.53;100.00;100777.47;5223679;28;19920;-67
2023/04/14 03:21:33;;;;;;;11.95;4.13;;;;;;;2.49;100.00;100776.78;5225650;28;20621;-66
2023/04/14 03:24:05;;;;;;;10.10;4.18;;;;;;;2.43;100.00;100779.66;5227295;28;20083;-66
2023/04/14 03:26:38;;;;;;;9.32;4.05;;;;;;;2.42;100.00;100777.13;5224358;28;20026;-67
2023/04/14 03:29:13;;;;;;;11.50;5.05;;;;;;;2.45;100.00;100777.81;5226294;28;20033;-66
2023/04/14 03:31:46;;;;;;;11.90;4.45;;;;;;;2.37;100.00;100779.09;5229660;28;20534;-67
2023/04/14 03:34:20;;;;;;;11.98;4.72;;;;;;;2.48;100.00;100787.38;5235539;28;20041;-67
2023/04/14 03:36:53;;;;;;;9.18;4.03;;;;;;;2.40;100.00;100781.56;5234909;28;20049;-67
2023/04/14 03:39:27;;;;;;;12.77;4.88;;;;;;;2.39;100.00;100783.38;5232016;28;20040;-67
2023/04/14 03:42:00;;;;;;;7.38;3.78;;;;;;;2.35;100.00;100787.06;5231421;28;20033;-66
2023/04/14 03:44:35;;;;;;;13.38;4.90;;;;;;;2.32;100.00;100782.78;5230710;28;20037;-67
2023/04/14 03:47:07;;;;;;;;;;;;;;;2.39;100.00;100782.50;5233462;28;20021;-67
2023/04/14 03:49:42;;;;;;;11.30;4.00;;;;;;;2.31;100.00;100780.22;5243864;28;19921;-67
2023/04/14 03:52:16;;;;;;;12.55;4.97;;;;;;;2.32;100.00;100782.78;5226466;28;20033;-66
2023/04/14 03:54:52;;;;;;;15.23;4.60;;;;;;;2.25;100.00;100780.50;5229306;28;20029;-67
2023/04/14 03:57:26;;;;;;;11.05;4.78;;;;;;;2.27;100.00;100783.91;5234007;28;20041;-67
2023/04/14 04:00:01;;;;;;;9.50;4.00;;;;;;;2.27;100.00;100789.16;5228069;28;20037;-67
2023/04/14 04:02:33;;;;;;;10.32;4.25;;;;;;;2.25;100.00;100791.88;5232704;28;20037;-66
2023/04/14 04:05:06;;;;;;;8.00;4.20;;;;;;;2.21;100.00;100794.72;5242603;28;20017;-67
2023/04/14 04:07:40;;;;;;;10.65;4.45;;;;;;;2.21;100.00;100798.19;5235383;28;20357;-66
2023/04/14 04:10:12;;;;;;;12.52;4.65;;;;;;;2.21;100.00;100800.81;5232174;28;20039;-67
2023/04/14 04:12:46;;;;;;;10.52;4.50;;;;;;;2.18;100.00;100794.81;5236797;28;20037;-67
2023/04/14 04:15:18;;;;;;;12.82;4.80;;;;;;;2.25;100.00;100794.50;5229675;28;20061;-67
2023/04/14 04:17:50;;;;;;;10.55;4.82;;;;;;;2.22;100.00;100791.97;5226536;28;20129;-66
2023/04/14 04:20:23;;;;;;;10.00;4.55;;;;;;;2.31;100.00;100794.22;5223571;28;20122;-66
2023/04/14 04:22:56;;;;;;;14.02;5.13;;;;;;;2.22;100.00;100797.25;5220146;28;20095;-66
2023/04/14 04:25:28;;;;;;;10.70;4.35;;;;;;;2.21;100.00;100797.34;5226221;28;20487;-66
2023/04/14 04:28:01;;;;;;;12.10;4.40;;;;;;;2.21;100.00;100794.72;5224535;28;20478;-66
2023/04/14 04:30:37;;;;;;;13.48;5.25;;;;;;;2.29;100.00;100803.13;5222332;28;20041;-67
2023/04/14 04:33:09;;;;;;;10.80;4.82;;;;;;;2.22;100.00;100802.50;5222018;28;20029;-67
2023/04/14 04:35:41;;;;;;;9.00;4.40;;;;;;;2.22;100.00;100806.94;5234779;28;20132;-66
2023/04/14 04:38:13;;;;;;;9.63;4.22;;;;;;;2.35;100.00;100806.34;5233121;28;20033;-67
2023/04/14 04:40:44;;;;;;;15.02;5.03;;;;;;;2.25;100.00;100806.81;5218504;28;20033;-66
2023/04/14 04:43:20;;;;;;;10.85;4.60;;;;;;;2.20;100.00;100803.50;5223341;28;20545;-67
2023/04/14 04:45:57;;;;;;;11.23;4.85;;;;;;;2.22;100.00;100812.19;5221266;28;20036;-67
2023/04/14 04:48:28;;;;;;;10.98;4.35;;;;;;;2.26;100.00;100804.13;5217577;28;20702;-67
2023/04/14 04:51:00;;;;;;;14.65;5.15;;;;;;;2.33;100.00;100809.97;5224203;28;20107;-67
2023/04/14 04:53:31;;;;;;;14.88;5.60;;;;;;;2.29;100.00;100805.75;5222961;28;20868;-67
2023/04/14 04:56:03;;;;;;;12.90;5.05;;;;;;;2.35;100.00;100808.97;5223420;28;20017;-66
2023/04/14 04:58:34;;;;;;;11.85;4.90;;;;;;;2.31;100.00;100807.38;5223821;28;20029;-67
2023/04/14 05:01:08;;;;;;;12.30;5.07;;;;;;;2.26;100.00;100800.59;5221852;28;20045;-67
2023/04/14 05:03:39;;;;;;;10.70;5.20;;;;;;;2.27;100.00;100802.34;5223096;28;20021;-66
2023/04/14 05:06:11;;;;;;;11.77;5.13;;;;;;;2.38;100.00;100807.13;5224695;28;20083;-67
2023/04/14 05:08:42;;;;;;;15.32;5.30;;;;;;;2.38;100.00;100802.72;5224697;28;20545;-67
2023/04/14 05:11:14;;;;;;;14.05;5.35;;;;;;;2.40;100.00;100805.28;5233918;28;20029;-67
2023/04/14 05:13:45;;;;;;;13.93;5.15;;;;;;;2.37;100.00;100795.75;5223625;28;20426;-67
2023/04/14 05:16:17;;;;;;;12.18;4.93;;;;;;;2.30;100.00;100810.09;5224745;28;20034;-67
2023/04/14 05:18:48;;;;;;;14.38;5.88;;;;;;;2.35;100.00;100793.16;5217571;28;20553;-67
2023/04/14 05:21:19;;;;;;;11.55;5.13;;;;;;;2.34;100.00;100802.00;5220624;28;20691;-67
2023/04/14 05:23:51;;;;;;;14.00;5.10;;;;;;;2.36;100.00;100801.94;5222621;28;20122;-66
2023/04/14 05:26:22;;;;;;;19.00;6.70;;;;;;;2.49;100.00;100796.97;5220749;28;20034;-67
2023/04/14 05:28:54;;;;;;;16.95;5.38;;;;;;;2.41;100.00;100794.69;5214979;28;20033;-67
2023/04/14 05:31:25;;;;;;;13.57;5.32;;;;;;;2.43;100.00;100805.16;5226468;28;20120;-66
2023/04/14 05:33:57;;;;;;;12.73;5.25;;;;;;;2.45;100.00;100806.78;5224349;28;20051;-67
2023/04/14 05:36:28;;;;;;;11.05;5.13;;;;;;;2.51;100.00;100808.31;5220932;28;20034;-67
2023/04/14 05:38:59;;;;;;;14.27;4.90;;;;;;;2.58;100.00;100801.00;5228398;28;20036;-67
2023/04/14 05:41:31;;;;;;;12.45;5.47;;;;;;;2.65;100.00;100807.72;5229085;28;20033;-67
2023/04/14 05:44:03;;;;;;;11.90;5.22;;;;;;;2.70;100.00;100800.44;5229364;28;20025;-67
2023/04/14 05:46:34;;;;;;;13.63;5.28;;;;;;;2.84;100.00;100797.19;5228191;28;20025;-67
2023/04/14 05:49:06;;;;;;;10.57;4.72;;;;;;;2.86;100.00;100793.59;5227917;28;20029;-68
2023/04/14 05:51:37;;;;;;;14.95;5.57;;;;;;;2.95;100.00;100797.56;5224936;28;20155;-68
2023/04/14 05:54:08;;;;;;;11.18;4.97;;;;;;;3.03;100.00;100797.22;5222108;28;20464;-68
2023/04/14 05:56:40;;;;;;;12.93;4.90;;;;;;;3.10;100.00;100799.50;5222250;28;20488;-68
2023/04/14 05:59:11;;;;;;;9.63;4.57;;;;;;;3.24;100.00;100798.00;5222219;28;20379;-68
2023/04/14 06:01:43;;;;;;;11.38;4.60;;;;;;;3.32;100.00;100803.78;5220940;28;20411;-68
2023/04/14 06:04:14;;;;;;;10.52;4.50;;;;;;;3.27;100.00;100809.25;5212804;28;20460;-68
2023/04/14 06:06:46;;;;;;;15.00;4.85;;;;;;;3.42;100.00;100820.88;5222880;28;20114;-68
2023/04/14 06:09:17;;;;;;;12.43;4.40;;;;;;;3.53;100.00;100808.03;5227820;28;20029;-69
2023/04/14 06:11:48;;;;;;;14.60;4.63;;;;;;;3.60;100.00;100808.59;5220296;28;20037;-68
2023/04/14 06:14:20;;;;;;;11.25;4.90;;;;;;;3.73;100.00;100812.34;5213491;28;20029;-69
2023/04/14 06:16:51;;;;;;;12.02;4.45;;;;;;;3.86;100.00;100812.63;5218443;28;20483;-68
2023/04/14 06:19:22;;;;;;;11.43;4.35;;;;;;;3.95;100.00;100805.16;5219255;28;20037;-68
2023/04/14 06:21:54;;;;;;;10.30;4.78;;;;;;;4.02;100.00;100810.06;5221076;28;20063;-68
2023/04/14 06:24:25;;;;;;;13.55;4.50;;;;;;;3.96;100.00;100807.72;5221880;28;20033;-68
2023/04/14 06:26:57;;;;;;;9.80;5.00;;;;;;;4.04;100.00;100797.63;5218594;28;20029;-68
2023/04/14 06:29:29;;;;;;;13.77;4.60;;;;;;;4.10;100.00;100797.34;5218481;28;20025;-68
2023/04/14 06:32:01;;;;;;;12.48;4.35;;;;;;;4.27;100.00;100792.97;5222123;28;20025;-68
2023/04/14 06:34:32;;;;;;;10.18;4.57;;;;;;;4.19;100.00;100787.25;5221742;28;20485;-68
2023/04/14 06:37:03;;;;;;;9.63;4.00;;;;;;;4.27;100.00;100788.53;5222790;28;20053;-68
2023/04/14 06:39:35;;;;;;;8.38;3.55;;;;;;;4.31;100.00;100778.69;5222409;28;20091;-68
2023/04/14 06:42:06;;;;;;;14.43;4.43;;;;;;;4.37;100.00;100778.34;5222048;28;20033;-68
2023/04/14 06:44:39;;;;;;;10.30;4.32;;;;;;;4.40;100.00;100786.13;5223030;28;20554;-68
2023/04/14 06:47:10;;;;;;;11.65;4.40;;;;;;;4.49;100.00;100782.19;5227574;28;20116;-69
2023/04/14 06:49:42;;;;;;;10.63;4.53;;;;;;;4.65;100.00;100774.28;5221151;28;20464;-68
2023/04/14 06:52:13;;;;;;;12.05;4.40;;;;;;;4.68;100.00;100776.78;5222879;28;20076;-69
2023/04/14 06:54:44;;;;;;;9.63;4.00;;;;;;;4.71;100.00;100774.81;5220588;28;20087;-68
2023/04/14 06:57:16;;;;;;;7.10;3.55;;;;;;;4.81;100.00;100777.81;5222537;28;21061;-68
2023/04/14 06:59:47;;;;;;;8.55;3.67;;;;;;;4.87;100.00;100777.50;5218506;28;20033;-68
2023/04/14 07:02:19;;;;;;;10.90;4.20;;;;;;;4.95;100.00;100770.91;5227895;28;20037;-68
2023/04/14 07:04:50;;;;;;;11.57;4.90;;;;;;;5.09;100.00;100779.81;5226240;28;20033;-68
2023/04/14 07:07:23;;;;;;;10.13;4.00;;;;;;;5.13;100.00;100766.44;5224689;28;20049;-68
2023/04/14 07:09:54;;;;;;;8.95;3.90;;;;;;;5.07;100.00;100765.84;5231695;28;20033;-68
2023/04/14 07:12:26;;;;;;;10.52;4.00;;;;;;;5.18;100.00;100767.91;5231266;28;20036;-68
2023/04/14 07:14:57;;;;;;;11.25;4.68;;;;;;;5.23;100.00;100759.69;5228554;28;20040;-68
2023/04/14 07:17:29;;;;;;;12.88;3.78;;;;;;;5.43;100.00;100761.25;5230968;28;20650;-68
2023/04/14 07:20:02;;;;;;;8.70;3.00;;;;;;;5.62;100.00;100753.97;5233848;28;20352;-68
2023/04/14 07:22:33;;;;;;;11.03;3.57;;;;;;;5.76;100.00;100747.00;5231134;28;20100;-68
2023/04/14 07:25:05;;;;;;;9.02;3.30;;;;;;;5.76;100.00;100754.97;5229658;28;20044;-68
2023/04/14 07:27:36;;;;;;;11.45;3.28;;;;;;;5.92;100.00;100739.88;5232217;28;20109;-67
2023/04/14 07:30:08;;;;;;;7.60;2.55;;;;;;;6.00;100.00;100745.63;5225224;28;20048;-67
2023/04/14 07:32:39;;;;;;;9.65;3.13;;;;;;;6.10;100.00;100745.91;5228430;28;20446;-68
2023/04/14 07:35:11;;;;;;;9.45;3.25;;;;;;;6.29;100.00;100745.69;5230360;28;20067;-68
2023/04/14 07:37:42;;;;;;;8.73;3.40;;;;;;;6.27;100.00;100735.16;5230596;28;20218;-67
2023/04/14 07:40:14;;;;;;;11.05;3.33;;;;;;;6.48;100.00;100734.78;5227593;28;20037;-68
2023/04/14 07:42:46;;;;;;;9.45;3.10;;;;;;;6.51;100.00;100733.78;5227189;28;20151;-68
2023/04/14 07:45:17;;;;;;;8.30;2.95;;;;;;;6.58;100.00;100737.75;5228167;28;20025;-68
2023/04/14 07:47:50;;;;;;;11.45;2.83;;;;;;;6.64;100.00;100729.41;5229552;28;20036;-68
2023/04/14 07:50:22;;;;;;;4.93;2.17;;;;;;;6.78;100.00;100725.91;5228987;28;20037;-68
2023/04/14 07:52:54;;;;;;;8.27;2.80;;;;;;;7.01;100.00;100729.75;5230143;28;20036;-68
2023/04/14 07:55:25;;;;;;;5.75;2.80;;;;;;;7.11;100.00;100737.97;5231114;28;20033;-68
2023/04/14 07:57:56;;;;;;;7.15;2.78;;;;;;;7.12;100.00;100735.22;5228835;28;20514;-68
2023/04/14 08:00:28;;;;;;;7.60;2.10;;;;;;;7.34;100.00;100736.50;5235128;28;20418;-68
2023/04/14 08:02:59;;;;;;;7.57;2.38;;;;;;;7.56;100.00;100728.84;5223769;28;20403;-68
2023/04/14 08:05:31;;;;;;;7.28;2.50;;;;;;;7.70;100.00;100733.22;5227930;28;20029;-68
2023/04/14 08:08:02;;;;;;;6.55;2.75;;;;;;;7.86;100.00;100730.41;5230409;28;20440;-67
2023/04/14 08:10:34;;;;;;;6.57;2.25;;;;;;;8.11;100.00;100737.59;5228407;28;20113;-68
2023/04/14 08:13:05;;;;;;;4.53;2.00;;;;;;;8.05;100.00;100732.66;5231407;28;20036;-67
2023/04/14 08:15:37;;;;;;;4.78;2.03;;;;;;;8.25;100.00;100729.50;5229764;28;21283;-68
2023/04/14 08:18:08;;;;;;;6.15;1.92;;;;;;;8.19;100.00;100729.94;5233236;28;20025;-68
2023/04/14 08:20:40;;;;;;;5.90;1.75;;;;;;;8.42;100.00;100723.06;5230475;28;20068;-68
2023/04/14 08:23:11;;;;;;;5.65;1.90;;;;;;;8.72;100.00;100732.50;5231157;28;20036;-67
2023/04/14 08:25:43;;;;;;;6.57;1.80;;;;;;;8.86;100.00;100728.88;5230107;28;20068;-68
2023/04/14 08:28:14;;;;;;;5.65;1.85;;;;;;;9.02;100.00;100731.28;5231465;28;20052;-68
2023/04/14 08:30:48;;;;;;;6.30;1.60;;;;;;;9.11;100.00;100722.66;5229129;28;20028;-67
2023/04/14 08:33:19;;;;;;;5.03;1.40;;;;;;;9.25;100.00;100724.28;5230133;28;20029;-68
2023/04/14 08:35:51;;;;;;;5.68;2.25;;;;;;;9.19;100.00;100730.91;5231855;28;20090;-68
2023/04/14 08:38:22;;;;;;;4.93;1.73;;;;;;;9.28;100.00;100720.56;5231237;28;20037;-67
2023/04/14 08:40:57;;;;;;;7.22;2.35;;;;;;;9.28;100.00;100726.75;5230998;28;20040;-68
2023/04/14 08:43:28;;;;;;;5.45;1.23;;;;;;;9.62;100.00;100721.56;5230420;28;20061;-67
2023/04/14 08:46:03;;;;;;;6.15;1.85;;;;;;;9.69;100.00;100725.50;5227607;28;20104;-67
2023/04/14 08:48:34;;;;;;;;;;;;;;;9.62;100.00;100719.75;5232636;28;20394;-67
2023/04/14 08:51:27;;;;;;;6.78;1.50;;;;;;;9.56;100.00;100724.69;5227303;28;19917;-67
2023/04/14 08:54:00;;;;;;;6.93;1.40;;;;;;;9.78;100.00;100718.63;5229577;28;20035;-67
2023/04/14 08:56:36;;;;;;;5.50;1.38;;;;;;;10.12;100.00;100716.06;5231282;28;20025;-67
2023/04/14 08:59:10;;;;;;;8.40;1.42;;;;;;;10.21;100.00;100726.00;5222469;28;20068;-68
2023/04/14 09:01:42;;;;;;;6.00;1.33;;;;;;;10.34;100.00;100723.28;5228545;28;20049;-67
2023/04/14 09:04:14;;;;;;;5.07;1.65;;;;;;;10.34;100.00;100724.13;5229737;28;20029;-67
2023/04/14 09:06:45;;;;;;;5.68;1.45;;;;;;;10.41;100.00;100719.16;5244474;28;20023;-67
2023/04/14 09:09:16;;;;;;;4.65;1.52;;;;;;;10.57;100.00;100721.50;5219412;28;20033;-67
2023/04/14 09:11:48;;;;;;;5.28;1.20;;;;;;;10.67;100.00;100711.78;5226232;28;20025;-67
2023/04/14 09:14:20;;;;;;;4.18;1.40;;;;;;;10.82;100.00;100709.72;5228165;28;20384;-68
2023/04/14 09:16:53;;;;;;;7.03;1.48;;;;;;;10.99;100.00;100706.56;5223797;28;20499;-67
2023/04/14 09:19:26;;;;;;;5.55;1.58;;;;;;;10.98;100.00;100717.34;5229732;28;20380;-67
2023/04/14 09:21:58;;;;;;;4.40;1.40;;;;;;;11.10;100.00;100703.03;5229166;28;20407;-67
2023/04/14 09:24:32;;;;;;;5.53;1.33;;;;;;;11.03;100.00;100711.66;5228371;28;20046;-68
2023/04/14 09:27:04;;;;;;;5.40;1.52;;;;;;;11.14;100.00;100700.94;5227845;28;20360;-67
2023/04/14 09:29:36;;;;;;;5.95;1.60;;;;;;;11.41;100.00;100699.66;5230399;28;20380;-67
2023/04/14 09:32:08;;;;;;;4.82;1.58;;;;;;;11.47;100.00;100693.81;5228440;28;20490;-68
2023/04/14 09:34:53;;;;;;;6.07;1.50;;;;;;;11.60;100.00;100696.31;5227376;28;20025;-67
2023/04/14 09:37:24;;;;;;;5.47;1.42;;;;;;;11.54;100.00;100695.84;5231204;28;20021;-67
2023/04/14 09:39:56;;;;;;;5.30;1.40;;;;;;;11.62;100.00;100691.69;5235450;28;20392;-68
2023/04/14 09:42:38;;;;;;;7.40;1.60;;;;;;;11.48;100.00;100690.16;5233351;28;20487;-68
2023/04/14 09:45:10;;;;;;;7.00;1.67;;;;;;;11.43;100.00;100689.69;5216290;28;20029;-68
2023/04/14 09:47:42;;;;;;;4.03;1.52;;;;;;;11.55;100.00;100686.84;5235082;28;21030;-67
2023/04/14 09:50:14;;;;;;;6.82;1.60;;;;;;;11.67;100.00;100690.31;5230517;28;20070;-68
2023/04/14 09:52:45;;;;;;;5.45;1.60;;;;;;;11.62;100.00;100681.84;5222239;28;20066;-68
2023/04/14 09:55:17;;;;;;;6.20;1.85;;;;;;;11.79;100.00;100675.06;5230787;28;20025;-67
2023/04/14 09:57:50;;;;;;;5.80;1.60;;;;;;;11.80;100.00;100673.25;5228428;28;20105;-68
2023/04/14 10:00:23;;;;;;;5.18;1.30;;;;;;;11.87;100.00;100680.63;5232386;28;20084;-68
2023/04/14 10:02:57;;;;;;;6.20;1.50;;;;;;;12.16;100.00;100680.00;5229963;28;20033;-68
2023/04/14 10:05:28;;;;;;;5.03;1.50;;;;;;;12.22;100.00;100666.09;5232019;28;20032;-70
2023/04/14 10:08:02;;;;;;;6.72;1.55;;;;;;;12.40;100.00;100671.69;5222496;28;20399;-68
2023/04/14 10:10:33;;;;;;;6.07;1.38;;;;;;;12.30;100.00;100662.75;5229095;28;20135;-68
2023/04/14 10:13:05;;;;;;;4.90;1.38;;;;;;;12.41;100.00;100664.53;5231562;28;20030;-67
2023/04/14 10:15:36;;;;;;;5.15;1.58;;;;;;;12.44;100.00;100657.03;5232235;28;20443;-67
2023/04/14 10:18:08;;;;;;;5.38;2.17;;;;;;;12.63;100.00;100661.63;5224684;28;20029;-68
2023/04/14 10:20:39;;;;;;;4.28;1.50;;;;;;;12.69;100.00;100647.69;5233383;28;20574;-68
2023/04/14 10:23:11;;;;;;;6.68;1.40;;;;;;;12.77;100.00;100652.41;5232930;28;20061;-67
2023/04/14 10:25:42;;;;;;;7.50;1.70;;;;;;;12.88;100.00;100651.44;5229747;28;20464;-68
2023/04/14 10:28:14;;;;;;;4.90;1.30;;;;;;;12.83;100.00;100650.97;5230861;28;20120;-68
2023/04/14 10:30:47;;;;;;;5.28;1.50;;;;;;;12.79;100.00;100646.88;5228361;28;20373;-68
2023/04/14 10:33:18;;;;;;;6.13;1.60;;;;;;;12.74;100.00;100644.63;5229515;28;20475;-67
2023/04/14 10:35:57;;;;;;;4.93;1.40;;;;;;;12.83;100.00;100640.25;5227111;28;20466;-68
2023/04/14 10:38:45;;;;;;;7.25;1.40;;;;;;;12.89;100.00;100647.78;5229535;28;20123;-67
2023/04/14 10:41:16;;;;;;;4.75;1.33;;;;;;;12.88;100.00;100638.03;5231089;28;20516;-68
2023/04/14 10:43:48;;;;;;;5.43;1.73;;;;;;;12.98;100.00;100635.38;5230966;28;20033;-67
2023/04/14 10:46:20;;;;;;;5.22;1.50;;;;;;;13.08;100.00;100638.94;5230102;28;20032;-68
2023/04/14 10:48:52;;;;;;;4.43;1.40;;;;;;;13.01;100.00;100627.06;5226728;28;20129;-68
2023/04/14 10:51:34;;;;;;;4.88;1.38;;;;;;;12.95;100.00;100634.66;5226679;28;20025;-68
2023/04/14 10:54:15;;;;;;;4.35;1.75;;;;;;;12.93;100.00;100633.13;5228780;28;20041;-67
2023/04/14 10:57:13;;;;;;;4.38;1.40;;;;;;;12.81;100.00;100621.69;5231611;28;20022;-67
2023/04/14 10:59:46;;;;;;;6.72;1.70;;;;;;;12.84;100.00;100628.59;5230112;28;20112;-67
2023/04/14 11:02:26;;;;;;;4.95;1.15;;;;;;;12.90;100.00;100625.34;5227510;28;20037;-68
2023/04/14 11:05:10;;;;;;;3.97;1.20;;;;;;;12.98;100.00;100624.66;5229377;28;20112;-68
2023/04/14 11:07:47;;;;;;;5.30;1.27;;;;;;;12.97;100.00;100618.47;5227864;28;20029;-67
2023/04/14 11:10:18;;;;;;;5.65;1.60;;;;;;;12.97;100.00;100621.16;5232372;28;20299;-67
2023/04/14 11:13:11;;;;;;;3.45;1.20;;;;;;;13.14;100.00;100611.59;5230849;28;20041;-67
2023/04/14 11:16:02;;;;;;;4.10;1.05;;;;;;;13.20;100.00;100602.97;5230195;28;20053;-67
2023/04/14 11:18:41;;;;;;;4.63;1.23;;;;;;;13.23;100.00;100600.03;5228008;28;20104;-67
2023/04/14 11:21:16;;;;;;;3.92;1.10;;;;;;;13.15;100.00;100605.22;5224404;28;20353;-68
2023/04/14 11:23:48;;;;;;;4.63;1.42;;;;;;;13.23;100.00;100597.34;5223869;28;20068;-68
2023/04/14 11:26:23;;;;;;;5.30;1.40;;;;;;;13.21;100.00;100593.97;5226799;28;20025;-67
2023/04/14 11:28:55;;;;;;;6.07;1.38;;;;;;;13.18;100.00;100604.13;5228219;28;20025;-67
2023/04/14 11:31:26;;;;;;;6.43;1.40;;;;;;;13.13;100.00;100596.47;5223731;28;20111;-67
2023/04/14 11:33:58;;;;;;;5.05;1.15;;;;;;;13.02;100.00;100602.84;5226590;28;20044;-67
2023/04/14 11:36:31;;;;;;;7.32;1.25;;;;;;;13.18;100.00;100604.97;5228042;28;20499;-67
2023/04/14 11:39:05;;;;;;;6.20;1.20;;;;;;;13.30;100.00;100603.84;5229091;28;20090;-67
2023/04/14 11:41:37;;;;;;;8.23;1.92;;;;;;;13.38;100.00;100589.75;5226723;28;20083;-67
2023/04/14 11:44:14;;;;;;;5.72;1.45;;;;;;;13.41;100.00;100594.84;5226785;28;20108;-67
2023/04/14 11:46:46;;;;;;;4.78;1.30;;;;;;;13.46;100.00;100594.41;5227084;28;20420;-67
2023/04/14 11:49:17;;;;;;;5.80;1.40;;;;;;;13.47;100.00;100591.56;5229098;28;20035;-67